Terminal Aerodrome Forecast
Issued by NWS

Home | Current Version | Previous Version | Text Only | Print | Product List | Glossary On
Versions: 1 2 3 4 5 6 7 8 9 10 11 12 13 14 15 16
450
FTUS45 KFGZ 090534
TAFGCN
TAF
KGCN 090534Z 0906/1006 VRB02KT P6SM BKN030
      TEMPO 0907/0911 SCT018 BKN030 BKN100
     FM091600 23007KT P6SM FEW120 BKN250
     FM100100 VRB03KT P6SM SCT250=

USA.gov is the U.S. government's official web portal to all federal, state and local government web resources and services.